Time;durP1;ratioP1;P1;durP2;ratioP2;P2;SDS_P1;SDS_P2;PMS_P1;PMS_P2;Temp;Humidity;BMP_temperature;BMP_pressure;BME280_temperature;BME280_humidity;BME280_pressure;Samples;Min_cycle;Max_cycle;Signal;HPM_P1;HPM_P2
2021/04/06 00:02:14;;;;;;;8.33;4.40;;;;;;;22.31;29.37;157002.11;1799215;79;21260;-79
2021/04/06 00:04:52;;;;;;;9.88;4.90;;;;;;;22.34;29.31;157008.77;1799318;79;21332;-80
2021/04/06 00:07:26;;;;;;;9.90;5.00;;;;;;;22.34;29.34;157008.77;1799357;79;21197;-80
2021/04/06 00:10:07;;;;;;;10.18;4.95;;;;;;;22.31;29.44;157000.81;1777708;79;21194;-79
2021/04/06 00:12:40;;;;;;;8.85;4.70;;;;;;;22.23;29.57;156980.94;1799497;79;21536;-79
2021/04/06 00:15:15;;;;;;;8.70;4.65;;;;;;;22.24;29.62;156983.59;1799219;79;21403;-80
2021/04/06 00:17:49;;;;;;;8.15;4.65;;;;;;;22.26;29.65;156987.55;1799338;79;21237;-79
2021/04/06 00:20:21;;;;;;;6.33;3.70;;;;;;;22.23;29.77;156980.94;1799878;79;21221;-79
2021/04/06 00:22:54;;;;;;;8.15;4.40;;;;;;;22.22;29.86;156976.98;1763117;79;21444;-79
2021/04/06 00:25:32;;;;;;;8.88;4.47;;;;;;;22.15;30.01;156958.41;1802219;79;22102;-79
2021/04/06 00:28:07;;;;;;;6.67;4.05;;;;;;;22.34;29.86;157010.13;1802133;79;21708;-79
2021/04/06 00:30:39;;;;;;;9.30;4.50;;;;;;;22.41;29.85;157027.34;1802229;79;21436;-79
2021/04/06 00:33:15;;;;;;;6.78;4.78;;;;;;;22.41;29.85;157028.64;1780330;79;21367;-79
2021/04/06 00:35:57;;;;;;;6.70;3.92;;;;;;;22.43;29.83;157032.64;1802037;79;21186;-79
2021/04/06 00:38:36;;;;;;;6.53;4.42;;;;;;;22.32;29.88;157004.81;1802026;79;21269;-79
2021/04/06 00:41:14;;;;;;;9.58;4.67;;;;;;;22.44;29.83;157036.59;1802109;79;21415;-79
2021/04/06 00:43:46;;;;;;;7.33;4.03;;;;;;;22.39;29.89;157022.03;1802021;79;21205;-79
2021/04/06 00:46:22;;;;;;;8.05;4.87;;;;;;;22.47;29.82;157044.56;1802056;79;21213;-79
2021/04/06 00:48:58;;;;;;;11.22;4.67;;;;;;;22.43;29.87;157033.94;1801896;79;21194;-79
2021/04/06 00:51:33;;;;;;;9.45;4.37;;;;;;;22.46;29.92;157041.91;1802028;79;21190;-79
2021/04/06 00:54:11;;;;;;;7.47;4.30;;;;;;;22.47;29.91;157043.20;1764027;79;21354;-79
2021/04/06 00:56:44;;;;;;;7.75;4.87;;;;;;;22.24;30.13;156983.59;1802110;79;21257;-79
2021/04/06 00:59:21;;;;;;;9.70;4.70;;;;;;;22.37;30.02;157016.72;1802011;79;21178;-80
2021/04/06 01:02:03;;;;;;;10.68;5.45;;;;;;;22.37;30.02;157018.08;1802037;79;21217;-80
2021/04/06 01:04:38;;;;;;;8.40;4.85;;;;;;;22.41;29.93;157027.34;1767346;79;21201;-80
2021/04/06 01:07:14;;;;;;;10.32;5.50;;;;;;;22.44;29.90;157036.59;1802127;79;21178;-80
2021/04/06 01:09:54;;;;;;;9.13;5.00;;;;;;;22.16;30.14;156962.38;1802101;79;21205;-80
2021/04/06 01:12:29;;;;;;;7.50;4.92;;;;;;;22.17;30.19;156965.03;1802084;79;22061;-80
2021/04/06 01:15:02;;;;;;;7.87;4.62;;;;;;;22.28;30.01;156992.84;1801995;79;21187;-80
2021/04/06 01:17:34;;;;;;;10.32;4.90;;;;;;;22.19;30.10;156969.03;1802204;79;21346;-80
2021/04/06 01:20:12;;;;;;;9.65;5.05;;;;;;;22.05;30.22;156931.94;1802192;79;21720;-78
2021/04/06 01:22:45;;;;;;;10.30;5.30;;;;;;;22.07;30.15;156937.25;1792874;79;21226;-79
2021/04/06 01:25:25;;;;;;;8.73;5.20;;;;;;;22.05;30.19;156933.25;1791320;80;21190;-79
2021/04/06 01:28:06;;;;;;;8.25;4.62;;;;;;;22.01;30.28;156921.33;1791347;80;21344;-79
2021/04/06 01:30:51;;;;;;;9.20;4.65;;;;;;;22.26;30.04;156987.55;1791587;80;21191;-79
2021/04/06 01:33:26;;;;;;;10.43;5.87;;;;;;;22.27;30.00;156991.55;1791488;80;21395;-79
2021/04/06 01:36:09;;;;;;;9.50;5.28;;;;;;;22.02;30.20;156925.34;1791418;80;21340;-79
2021/04/06 01:38:41;;;;;;;11.57;5.28;;;;;;;21.99;30.31;156916.03;1791528;80;21195;-79
2021/04/06 01:41:13;;;;;;;11.83;5.62;;;;;;;22.01;30.26;156921.33;1791410;80;21321;-79
2021/04/06 01:43:52;;;;;;;9.08;5.37;;;;;;;22.21;30.06;156974.33;1791450;80;21363;-79
2021/04/06 01:46:30;;;;;;;8.10;4.58;;;;;;;22.18;30.12;156967.67;1791535;80;21391;-79
2021/04/06 01:48:54;;;;;;;8.18;4.95;;;;;;;22.08;30.21;156939.91;1790402;80;21337;-80
2021/04/06 01:51:26;;;;;;;8.43;5.12;;;;;;;22.05;30.31;156931.94;1791652;80;21319;-79
2021/04/06 01:53:59;;;;;;;10.48;6.08;;;;;;;22.15;30.24;156958.41;1791623;80;21340;-79
2021/04/06 01:56:32;;;;;;;8.90;5.05;;;;;;;21.95;30.43;156905.47;1791568;80;21391;-80
2021/04/06 01:59:08;;;;;;;9.40;5.28;;;;;;;22.04;30.31;156929.28;1791410;80;21811;-79
2021/04/06 02:01:42;;;;;;;8.83;5.10;;;;;;;22.23;30.16;156980.94;1791465;80;21757;-80
2021/04/06 02:04:18;;;;;;;9.28;5.67;;;;;;;21.99;30.44;156917.37;1791485;80;21353;-80
2021/04/06 02:06:52;;;;;;;10.55;5.53;;;;;;;21.95;30.52;156905.47;1758450;80;21307;-80
2021/04/06 02:09:24;;;;;;;9.38;5.25;;;;;;;21.88;30.60;156888.25;1791629;80;21631;-80
2021/04/06 02:11:57;;;;;;;8.93;5.15;;;;;;;22.06;30.42;156934.59;1791557;80;21253;-80
2021/04/06 02:14:31;;;;;;;10.82;5.47;;;;;;;21.83;30.64;156875.00;1791516;80;22146;-79
2021/04/06 02:17:06;;;;;;;10.63;5.53;;;;;;;21.77;30.74;156856.48;1791519;80;21332;-79
2021/04/06 02:19:40;;;;;;;9.85;5.65;;;;;;;21.74;30.77;156848.53;1791550;80;21340;-79
2021/04/06 02:22:17;;;;;;;7.75;5.20;;;;;;;21.69;30.82;156835.33;1791475;79;21226;-79
2021/04/06 02:24:53;;;;;;;9.83;5.08;;;;;;;21.97;30.61;156910.78;1791508;80;21221;-79
2021/04/06 02:27:30;;;;;;;10.35;5.42;;;;;;;21.99;30.60;156916.03;1791503;80;21596;-79
2021/04/06 02:30:07;;;;;;;10.28;5.85;;;;;;;21.87;30.74;156885.59;1791507;80;22125;-79
2021/04/06 02:32:40;;;;;;;8.65;5.00;;;;;;;21.89;30.73;156889.56;1791540;80;21385;-79
2021/04/06 02:35:13;;;;;;;11.55;5.47;;;;;;;21.91;30.67;156896.22;1791642;80;21560;-79
2021/04/06 02:37:46;;;;;;;12.82;6.42;;;;;;;21.89;30.74;156890.91;1791503;80;21166;-80
2021/04/06 02:40:20;;;;;;;9.00;5.47;;;;;;;21.84;30.80;156876.34;1791405;80;21379;-79
2021/04/06 02:42:58;;;;;;;9.95;5.78;;;;;;;21.58;31.14;156806.20;1791508;80;21437;-79
2021/04/06 02:45:30;;;;;;;11.00;6.28;;;;;;;21.50;31.24;156784.95;1791526;80;21496;-79
2021/04/06 02:48:04;;;;;;;11.80;5.97;;;;;;;21.67;31.02;156831.33;1791498;80;21340;-80
2021/04/06 02:50:39;;;;;;;9.90;5.85;;;;;;;21.69;30.94;156835.33;1791385;79;21360;-80
2021/04/06 02:53:13;;;;;;;9.98;5.10;;;;;;;21.75;30.88;156851.19;1791506;80;21332;-81
2021/04/06 02:55:46;;;;;;;9.13;6.47;;;;;;;21.78;30.84;156860.44;1791530;80;21347;-80
2021/04/06 02:58:19;;;;;;;10.80;6.05;;;;;;;21.78;30.84;156860.44;1791455;80;21607;-79
2021/04/06 03:00:51;;;;;;;9.70;5.62;;;;;;;21.82;30.76;156871.05;1791515;80;21828;-80
2021/04/06 03:03:25;;;;;;;8.50;4.90;;;;;;;21.85;30.72;156879.00;1791478;80;21535;-80
2021/04/06 03:06:09;;;;;;;11.40;6.17;;;;;;;21.84;30.72;156876.34;1791639;80;21190;-80
2021/04/06 03:08:43;;;;;;;9.08;5.45;;;;;;;21.88;30.67;156886.91;1791407;80;21191;-80
2021/04/06 03:11:15;;;;;;;9.65;5.87;;;;;;;21.78;30.75;156859.14;1791618;80;22161;-80
2021/04/06 03:13:48;;;;;;;9.68;5.90;;;;;;;21.73;30.81;156847.23;1791365;80;21191;-86
2021/04/06 03:16:23;;;;;;;11.03;6.28;;;;;;;21.66;30.88;156828.67;1791623;80;21336;-79
2021/04/06 03:19:03;;;;;;;11.35;6.10;;;;;;;21.69;30.87;156836.63;1791324;80;21302;-79
2021/04/06 03:21:36;;;;;;;11.40;6.63;;;;;;;21.67;30.89;156831.33;1791895;80;21202;-79
2021/04/06 03:24:10;;;;;;;10.78;5.72;;;;;;;21.61;30.95;156815.47;1791499;80;21256;-79
2021/04/06 03:26:42;;;;;;;8.65;5.50;;;;;;;21.58;31.02;156807.50;1791409;80;21840;-80
2021/04/06 03:29:14;;;;;;;11.30;5.67;;;;;;;21.56;31.06;156802.20;1791508;80;21340;-80
2021/04/06 03:31:47;;;;;;;11.63;6.25;;;;;;;21.54;31.09;156795.56;1791506;80;21194;-80
2021/04/06 03:34:19;;;;;;;11.57;6.22;;;;;;;21.56;31.12;156800.86;1791498;80;21321;-81
2021/04/06 03:36:51;;;;;;;12.35;6.12;;;;;;;21.51;31.19;156788.95;1791521;80;21350;-85
2021/04/06 03:39:24;;;;;;;13.10;6.85;;;;;;;21.55;31.22;156799.50;1791272;80;21234;-80
2021/04/06 03:41:56;;;;;;;13.58;7.72;;;;;;;21.55;31.29;156799.50;1791472;80;21325;-82
2021/04/06 03:44:31;;;;;;;15.53;7.50;;;;;;;21.57;31.33;156803.56;1791290;80;21627;-85
2021/04/06 03:50:43;;;;;;;13.15;6.70;;;;;;;21.66;31.39;156827.38;1791390;80;21650;-79
2021/04/06 03:53:16;;;;;;;12.35;6.50;;;;;;;21.80;31.23;156865.75;1791274;80;21415;-80
2021/04/06 03:56:16;;;;;;;16.12;6.92;;;;;;;21.94;31.14;156902.81;1791358;80;22066;-79
2021/04/06 03:58:47;;;;;;;15.10;7.10;;;;;;;22.03;31.08;156927.98;1791440;80;21352;-79
2021/04/06 04:01:18;;;;;;;11.65;6.50;;;;;;;22.20;30.99;156972.98;1791403;80;21182;-76
2021/04/06 04:03:57;;;;;;;12.82;7.20;;;;;;;22.40;30.75;157024.69;1791351;80;21179;-87
2021/04/06 04:06:31;;;;;;;15.55;6.35;;;;;;;22.52;30.66;157057.77;1791220;80;22265;-84
2021/04/06 04:09:04;;;;;;;17.60;7.83;;;;;;;22.58;30.52;157073.69;1791332;80;21356;-80
2021/04/06 04:11:38;;;;;;;18.92;8.15;;;;;;;22.46;30.62;157040.55;1791272;80;21331;-83
2021/04/06 04:17:51;;;;;;;16.77;7.30;;;;;;;22.60;30.54;157079.00;1791252;80;21653;-77
2021/04/06 04:20:24;;;;;;;15.75;7.10;;;;;;;22.68;30.44;157100.19;1791256;80;21357;-73
2021/04/06 04:22:56;;;;;;;14.73;6.25;;;;;;;22.69;30.48;157102.83;1791372;80;21202;-76
2021/04/06 04:25:28;;;;;;;12.80;6.20;;;;;;;22.76;30.37;157121.36;1797813;79;21225;-78
2021/04/06 04:28:01;;;;;;;11.95;6.20;;;;;;;22.84;30.36;157143.89;1779958;79;21469;-77
2021/04/06 04:30:54;;;;;;;12.60;6.35;;;;;;;22.90;30.27;157158.47;1804316;79;21324;-78
2021/04/06 04:33:11;;;;;;;12.05;6.95;;;;;;;22.96;30.22;157175.69;1797715;79;21221;-82
2021/04/06 04:35:43;;;;;;;14.18;7.67;;;;;;;23.02;30.23;157190.27;1801961;79;21320;-80
2021/04/06 04:38:16;;;;;;;13.88;7.00;;;;;;;23.04;30.21;157196.88;1801953;79;22104;-77
2021/04/06 04:40:49;;;;;;;11.25;6.72;;;;;;;23.07;30.25;157203.59;1802168;79;21339;-80
2021/04/06 04:43:23;;;;;;;10.70;6.53;;;;;;;23.08;30.34;157207.55;1801975;79;21332;-76
2021/04/06 04:45:56;;;;;;;11.12;6.37;;;;;;;23.07;30.28;157203.59;1802112;79;21224;-80
2021/04/06 04:48:28;;;;;;;10.75;7.05;;;;;;;23.16;30.14;157228.73;1802091;79;21249;-80
2021/04/06 04:51:00;;;;;;;12.53;6.85;;;;;;;23.08;30.28;157206.25;1802159;79;21186;-79
2021/04/06 04:53:33;;;;;;;16.95;8.58;;;;;;;23.24;30.18;157248.61;1802103;79;21218;-79
2021/04/06 04:56:06;;;;;;;13.88;7.40;;;;;;;23.12;30.36;157218.16;1802075;79;21190;-78
2021/04/06 04:58:39;;;;;;;14.20;7.65;;;;;;;23.41;30.11;157293.70;1802151;79;21264;-82
2021/04/06 05:01:13;;;;;;;14.85;8.10;;;;;;;23.52;30.07;157324.16;1802091;79;21185;-81
2021/04/06 05:03:45;;;;;;;13.68;6.72;;;;;;;23.64;29.98;157354.67;1802099;79;21285;-82
2021/04/06 05:09:56;;;;;;;9.03;5.47;;;;;;;23.61;30.05;157348.02;1802014;79;22013;-79
2021/04/06 05:12:28;;;;;;;10.32;5.75;;;;;;;23.67;30.15;157362.64;1800213;79;21197;-78
2021/04/06 05:15:01;;;;;;;7.60;5.10;;;;;;;23.70;30.17;157371.91;1800287;79;21191;-78
2021/04/06 05:17:33;;;;;;;12.43;6.55;;;;;;;23.63;29.99;157352.02;1800252;79;21186;-78
2021/04/06 05:20:07;;;;;;;11.22;5.30;;;;;;;23.50;29.62;157318.84;1800299;79;21252;-78
2021/04/06 05:22:39;;;;;;;10.70;6.03;;;;;;;23.50;29.67;157318.84;1800381;79;21244;-78
2021/04/06 05:25:12;;;;;;;13.93;7.55;;;;;;;23.52;29.54;157322.86;1800200;79;21447;-77
2021/04/06 05:27:45;;;;;;;10.13;5.87;;;;;;;23.75;29.41;157385.14;1797483;79;21229;-79
2021/04/06 05:30:18;;;;;;;9.55;5.62;;;;;;;23.94;29.25;157436.91;1799299;79;21344;-78
2021/04/06 05:32:50;;;;;;;11.65;5.97;;;;;;;23.99;29.31;157450.19;1799469;78;21729;-79
2021/04/06 05:35:22;;;;;;;10.20;6.10;;;;;;;24.00;29.13;157452.84;1799383;79;21342;-78
2021/04/06 05:37:56;;;;;;;11.63;5.95;;;;;;;23.98;29.15;157446.19;1799207;79;21705;-78
2021/04/06 05:40:28;;;;;;;9.43;5.80;;;;;;;23.93;29.21;157434.25;1799401;79;22154;-78
2021/04/06 05:43:03;;;;;;;10.13;5.95;;;;;;;23.94;29.10;157435.61;1799378;79;21678;-80
2021/04/06 05:45:36;;;;;;;11.55;5.75;;;;;;;23.94;29.18;157435.61;1799273;79;21240;-79
2021/04/06 05:48:08;;;;;;;11.83;6.70;;;;;;;23.92;29.09;157430.30;1799273;79;21736;-79
2021/04/06 05:50:44;;;;;;;11.57;6.65;;;;;;;23.92;29.17;157430.30;1777587;79;21329;-79
2021/04/06 05:53:19;;;;;;;9.58;5.60;;;;;;;23.84;29.18;157410.41;1799285;79;21748;-79
2021/04/06 05:55:51;;;;;;;14.95;5.47;;;;;;;23.80;29.03;157398.47;1799363;79;21352;-79
2021/04/06 05:58:24;;;;;;;8.98;5.55;;;;;;;23.73;29.34;157381.19;1799494;79;21260;-79
2021/04/06 06:00:56;;;;;;;10.30;5.78;;;;;;;23.85;29.18;157413.06;1799387;79;21340;-79
2021/04/06 06:03:28;;;;;;;12.98;5.92;;;;;;;23.86;29.23;157415.72;1777744;79;21395;-79
2021/04/06 06:06:00;;;;;;;9.53;5.85;;;;;;;23.93;29.23;157432.95;1799472;79;21205;-79
2021/04/06 06:08:33;;;;;;;10.32;6.28;;;;;;;23.99;29.02;157448.84;1799256;79;21218;-79
2021/04/06 06:11:06;;;;;;;13.93;6.85;;;;;;;24.05;29.26;157464.78;1799471;79;21329;-78
2021/04/06 06:13:39;;;;;;;12.05;6.20;;;;;;;24.12;28.91;157483.33;1799351;79;21194;-79
2021/04/06 06:16:16;;;;;;;13.93;6.90;;;;;;;24.22;28.76;157511.19;1799290;79;21826;-79
2021/04/06 06:19:01;;;;;;;9.85;5.92;;;;;;;24.37;29.06;157550.95;1799275;79;21713;-79
2021/04/06 06:21:47;;;;;;;9.43;6.30;;;;;;;24.54;28.65;157596.13;1777416;79;21190;-79
2021/04/06 06:24:30;;;;;;;11.25;6.50;;;;;;;24.63;28.60;157620.00;1799413;79;21713;-79
2021/04/06 06:27:02;;;;;;;14.40;6.17;;;;;;;24.81;28.53;157667.80;1800350;79;21245;-79
2021/04/06 06:29:36;;;;;;;10.80;6.25;;;;;;;24.97;28.58;157711.58;1801657;79;21410;-79
2021/04/06 06:32:19;;;;;;;10.40;6.35;;;;;;;25.15;28.25;157758.08;1802112;78;21218;-79
2021/04/06 06:34:52;;;;;;;10.90;6.62;;;;;;;25.24;28.07;157783.27;1782003;79;22154;-79
2021/04/06 06:37:27;;;;;;;9.00;5.90;;;;;;;25.40;27.87;157824.45;1802082;79;21197;-79
2021/04/06 06:40:05;;;;;;;11.50;6.00;;;;;;;25.71;27.67;157908.06;1802116;79;21350;-79
2021/04/06 06:42:39;;;;;;;10.90;6.28;;;;;;;25.59;27.65;157876.19;1802372;79;22127;-79
2021/04/06 06:45:26;;;;;;;13.30;6.95;;;;;;;25.66;27.54;157894.81;1780687;79;21588;-78
2021/04/06 06:47:59;;;;;;;10.15;6.05;;;;;;;25.73;27.51;157914.75;1770498;81;22260;-79
2021/04/06 06:54:10;;;;;;;15.72;7.78;;;;;;;26.18;27.48;158032.95;1770465;81;21161;-78
2021/04/06 06:56:43;;;;;;;19.17;9.48;;;;;;;26.53;27.00;158126.00;1770517;81;21224;-79
2021/04/06 06:59:16;;;;;;;16.75;8.63;;;;;;;26.76;26.79;158189.80;1770554;81;21335;-78
2021/04/06 07:01:48;;;;;;;12.03;7.00;;;;;;;27.08;27.01;158273.59;1770567;81;21701;-78
2021/04/06 07:04:20;;;;;;;26.93;11.97;;;;;;;27.49;26.46;158385.25;1770579;81;21580;-78
2021/04/06 07:06:53;;;;;;;15.30;7.25;;;;;;;27.77;26.34;158459.78;1774475;81;21256;-78
2021/04/06 07:09:28;;;;;;;11.03;7.15;;;;;;;27.94;25.77;158505.03;1724760;80;21260;-76
2021/04/06 07:12:04;;;;;;;10.45;6.20;;;;;;;27.88;25.62;158489.05;1770467;81;21502;-77
2021/04/06 07:14:39;;;;;;;13.62;6.08;;;;;;;27.95;25.76;158506.34;1770500;81;21866;-77
2021/04/06 07:17:12;;;;;;;10.68;5.90;;;;;;;27.99;25.77;158517.00;1770474;81;22143;-77
2021/04/06 07:19:45;;;;;;;12.58;6.78;;;;;;;28.10;25.74;158546.27;1770677;81;21205;-77
2021/04/06 07:22:19;;;;;;;10.45;5.62;;;;;;;28.24;25.67;158584.87;1770647;81;21336;-77
2021/04/06 07:24:51;;;;;;;12.13;5.95;;;;;;;28.37;25.48;158619.48;1749860;81;21468;-77
2021/04/06 07:27:24;;;;;;;12.78;6.55;;;;;;;28.46;25.15;158644.78;1770364;81;21217;-77
2021/04/06 07:29:56;;;;;;;12.43;5.62;;;;;;;28.53;25.17;158662.03;1667089;83;21761;-77
2021/04/06 07:32:28;;;;;;;8.23;5.55;;;;;;;28.68;24.92;158703.33;1768088;81;21339;-77
2021/04/06 07:38:49;;;;;;;9.53;5.20;;;;;;;28.96;24.75;158777.89;1768034;81;21141;-77
2021/04/06 07:41:26;;;;;;;10.43;6.65;;;;;;;29.26;24.82;158857.80;1767337;81;21812;-77
2021/04/06 07:44:01;;;;;;;12.60;6.95;;;;;;;29.39;24.61;158893.78;1768080;81;21382;-77
2021/04/06 07:46:40;;;;;;;10.50;6.08;;;;;;;29.43;24.37;158904.45;1768199;81;21578;-77
2021/04/06 07:49:32;;;;;;;11.22;6.80;;;;;;;29.46;24.08;158912.41;1770296;81;21213;-78
2021/04/06 07:52:17;;;;;;;9.33;5.83;;;;;;;29.42;24.33;158900.44;1776014;81;22068;-77
2021/04/06 07:54:51;;;;;;;10.25;6.25;;;;;;;29.58;24.53;158943.06;1775842;81;21177;-77
2021/04/06 07:57:31;;;;;;;11.12;5.85;;;;;;;29.91;24.23;159032.31;1775981;81;21216;-77
2021/04/06 08:00:04;;;;;;;13.05;6.92;;;;;;;30.01;23.83;159057.66;1747828;81;21309;-77
2021/04/06 08:02:45;;;;;;;11.88;6.28;;;;;;;30.23;24.02;159116.27;1775865;81;21189;-78
2021/04/06 08:05:18;;;;;;;52.78;24.07;;;;;;;30.49;24.09;159188.30;1775984;81;21189;-77
2021/04/06 08:07:51;;;;;;;18.37;10.18;;;;;;;30.67;23.65;159234.94;1746073;81;21200;-77
2021/04/06 08:10:31;;;;;;;140.35;62.83;;;;;;;30.74;23.31;159253.58;1775839;81;21271;-79
2021/04/06 08:13:05;;;;;;;38.60;21.73;;;;;;;30.78;23.06;159265.62;1776017;81;21458;-77
2021/04/06 08:15:37;;;;;;;43.63;20.50;;;;;;;30.77;23.02;159262.95;1776116;81;21319;-77
2021/04/06 08:18:10;;;;;;;18.95;9.35;;;;;;;30.75;23.09;159256.25;1776014;81;21316;-77
2021/04/06 08:20:44;;;;;;;7.67;5.25;;;;;;;30.72;23.06;159249.59;1746424;81;21240;-77
2021/04/06 08:23:43;;;;;;;7.17;4.53;;;;;;;30.94;22.53;159306.94;1775978;81;21453;-76
2021/04/06 08:26:33;;;;;;;9.28;5.40;;;;;;;31.06;22.51;159338.98;1775895;81;21342;-77
2021/04/06 08:29:29;;;;;;;11.25;6.12;;;;;;;31.08;22.20;159344.28;1775897;81;21701;-77
2021/04/06 08:32:14;;;;;;;8.68;4.87;;;;;;;31.07;22.36;159341.66;1775893;80;21363;-78
2021/04/06 08:34:54;;;;;;;6.80;4.20;;;;;;;31.10;22.29;159350.98;1775902;81;21723;-77
2021/04/06 08:37:39;;;;;;;8.23;4.33;;;;;;;31.12;22.39;159356.31;1775903;81;22014;-77
2021/04/06 08:40:11;;;;;;;5.95;4.30;;;;;;;31.01;22.37;159325.58;1776006;81;21192;-77
2021/04/06 08:42:44;;;;;;;12.13;7.00;;;;;;;30.85;22.27;159284.27;1776072;81;21877;-77
2021/04/06 08:45:16;;;;;;;47.65;26.42;;;;;;;31.03;22.12;159332.28;1746151;81;21161;-77
2021/04/06 08:47:49;;;;;;;13.32;8.83;;;;;;;31.93;21.59;159572.42;1722146;81;21173;-77
2021/04/06 08:50:36;;;;;;;13.32;6.03;;;;;;;33.12;20.85;159891.55;1775912;81;21256;-77
2021/04/06 08:53:08;;;;;;;22.80;12.63;;;;;;;34.12;20.59;160161.44;1776138;80;21185;-76
2021/04/06 08:55:41;;;;;;;28.80;12.33;;;;;;;34.43;20.12;160245.63;1775975;81;21193;-77
2021/04/06 08:58:15;;;;;;;11.22;6.28;;;;;;;34.35;20.41;160222.91;1776051;81;21197;-78
2021/04/06 09:00:47;;;;;;;8.18;5.25;;;;;;;33.83;20.28;160082.56;1776097;80;21181;-78
2021/04/06 09:03:19;;;;;;;13.20;7.33;;;;;;;33.45;20.40;159982.34;1776060;81;21193;-77
2021/04/06 09:05:55;;;;;;;13.13;8.00;;;;;;;32.88;20.82;159827.41;1722888;81;21189;-77
2021/04/06 09:08:28;;;;;;;11.97;5.15;;;;;;;32.63;21.13;159762.02;1746840;81;21198;-78
2021/04/06 09:11:06;;;;;;;11.30;5.85;;;;;;;32.79;21.00;159804.70;1775950;81;22080;-78
2021/04/06 09:13:40;;;;;;;8.25;4.83;;;;;;;32.79;20.97;159804.70;1776327;81;21173;-77
2021/04/06 09:16:14;;;;;;;9.63;5.78;;;;;;;32.98;20.62;159854.09;1746783;81;22008;-76
2021/04/06 09:18:46;;;;;;;7.85;4.28;;;;;;;33.03;20.64;159868.78;1776147;80;21447;-80
2021/04/06 09:24:56;;;;;;;5.50;3.72;;;;;;;33.18;19.78;159908.91;1775859;81;21997;-78
2021/04/06 09:31:09;;;;;;;6.25;3.90;;;;;;;33.54;19.73;160006.38;1775867;80;21651;-78
2021/04/06 09:33:41;;;;;;;9.58;3.90;;;;;;;34.44;18.74;160246.95;1776054;80;21347;-82
2021/04/06 09:36:14;;;;;;;203.85;120.15;;;;;;;35.15;18.49;160438.25;1775849;81;21212;-78
2021/04/06 09:38:49;;;;;;;106.35;61.70;;;;;;;35.68;18.40;160580.03;1775828;81;22073;-78
2021/04/06 09:41:30;;;;;;;94.22;57.60;;;;;;;36.85;17.91;160895.92;1746618;81;21231;-78
2021/04/06 09:44:04;;;;;;;;;;;;;;;37.88;17.48;161171.92;1778729;81;21196;-78
2021/04/06 09:46:54;;;;;;;15.20;8.53;;;;;;;39.02;17.04;161480.22;1776070;80;20341;-77
2021/04/06 09:49:34;;;;;;;;;;;;;;;40.01;16.42;161747.22;1778740;81;21351;-77
2021/04/06 09:52:10;;;;;;;34.58;20.00;;;;;;;40.56;15.84;161896.20;1776168;81;20248;-78
2021/04/06 09:54:53;;;;;;;29.63;18.25;;;;;;;40.81;15.95;161963.36;1774636;81;22065;-79
2021/04/06 09:57:33;;;;;;;189.15;83.97;;;;;;;41.57;15.64;162168.84;1767406;81;21216;-82
2021/04/06 10:00:10;;;;;;;15.23;7.58;;;;;;;42.57;15.36;162437.55;1775914;81;22025;-78
2021/04/06 10:02:43;;;;;;;190.07;106.07;;;;;;;42.70;14.97;162472.47;1776014;81;21228;-78
2021/04/06 10:05:21;;;;;;;76.15;42.50;;;;;;;42.85;14.75;162512.86;1775804;80;21173;-78
2021/04/06 10:07:53;;;;;;;317.85;137.65;;;;;;;43.05;14.64;162567.97;1775949;80;21290;-77
2021/04/06 10:10:29;;;;;;;43.00;20.57;;;;;;;43.24;14.48;162619.06;1781258;80;21752;-78
2021/04/06 10:16:40;;;;;;;28.52;13.03;;;;;;;42.37;14.57;162383.83;1743827;82;21347;-78
2021/04/06 10:19:23;;;;;;;52.20;22.07;;;;;;;42.81;14.74;162503.45;1781086;80;22006;-77
2021/04/06 10:22:10;;;;;;;7.03;4.72;;;;;;;43.34;14.58;162645.94;1781212;80;21519;-77
2021/04/06 10:24:49;;;;;;;6.15;4.03;;;;;;;44.00;14.05;162824.86;1743373;82;21208;-76
2021/04/06 10:27:28;;;;;;;39.92;19.77;;;;;;;44.00;14.05;162824.86;1741001;82;22033;-77
2021/04/06 10:30:02;;;;;;;39.75;18.57;;;;;;;43.76;13.98;162758.89;1724857;83;21211;-77
2021/04/06 10:32:42;;;;;;;8.80;4.78;;;;;;;44.13;14.06;162861.14;1724398;82;21226;-76
2021/04/06 10:35:28;;;;;;;36.28;17.25;;;;;;;45.06;14.07;163112.84;1745761;82;22071;-80
2021/04/06 10:38:03;;;;;;;69.90;31.68;;;;;;;46.55;13.29;163515.48;1750823;82;21387;-79
2021/04/06 10:40:43;;;;;;;48.60;26.40;;;;;;;46.53;13.16;163510.08;1750816;82;21452;-79
2021/04/06 10:43:21;;;;;;;47.03;24.12;;;;;;;46.37;13.36;163465.59;1750891;82;21257;-79
2021/04/06 10:46:06;;;;;;;38.00;19.37;;;;;;;46.67;13.13;163546.48;1750785;82;21186;-78
2021/04/06 10:48:42;;;;;;;143.25;55.30;;;;;;;46.70;12.88;163554.58;1750868;82;21617;-78
2021/04/06 10:51:21;;;;;;;105.15;45.70;;;;;;;46.00;13.36;163367.28;1750730;82;21360;-78
2021/04/06 10:53:56;;;;;;;29.18;14.55;;;;;;;45.76;13.34;163301.36;1750927;82;21461;-78
2021/04/06 10:56:32;;;;;;;31.17;17.60;;;;;;;45.86;13.71;163328.28;1750827;82;21371;-78
2021/04/06 10:59:07;;;;;;;11.03;6.50;;;;;;;46.51;13.17;163504.75;1750822;82;21205;-78
2021/04/06 11:01:47;;;;;;;7.10;4.83;;;;;;;46.37;13.46;163465.59;1750793;82;21261;-78
2021/04/06 11:07:58;;;;;;;46.92;20.62;;;;;;;45.87;13.57;163332.28;1750613;82;21165;-76
2021/04/06 11:14:11;;;;;;;51.58;22.73;;;;;;;41.04;14.72;162025.09;1750561;82;21178;-75
2021/04/06 11:16:45;;;;;;;53.33;22.15;;;;;;;38.57;16.07;161359.55;1750413;82;21720;-76
2021/04/06 11:19:29;;;;;;;67.47;27.48;;;;;;;37.96;16.61;161193.39;1750796;82;21348;-76
2021/04/06 11:22:05;;;;;;;37.88;20.02;;;;;;;37.42;16.79;161050.03;1750516;82;21419;-74
2021/04/06 11:24:38;;;;;;;31.42;15.53;;;;;;;36.90;17.09;160908.02;1750624;82;21368;-73
2021/04/06 11:27:11;;;;;;;17.67;8.83;;;;;;;36.32;17.32;160752.66;1750581;82;21201;-75
2021/04/06 11:29:43;;;;;;;14.70;7.80;;;;;;;36.13;17.50;160703.16;1750650;82;21748;-74
2021/04/06 11:32:18;;;;;;;23.60;11.20;;;;;;;37.09;17.23;160960.23;1750567;82;21415;-75
2021/04/06 11:34:52;;;;;;;16.10;8.33;;;;;;;38.49;16.82;161338.13;1731813;82;21734;-74
2021/04/06 11:37:24;;;;;;;11.83;5.72;;;;;;;38.47;16.53;161332.75;1701117;83;21349;-77
2021/04/06 11:39:58;;;;;;;18.82;9.50;;;;;;;37.82;16.78;161155.88;1750501;82;21876;-78
2021/04/06 11:42:30;;;;;;;21.15;10.03;;;;;;;37.43;16.84;161052.70;1750587;82;21346;-78
2021/04/06 11:45:03;;;;;;;31.55;13.90;;;;;;;36.69;17.01;160851.75;1750801;82;21411;-78
2021/04/06 11:47:35;;;;;;;21.00;10.10;;;;;;;36.00;17.52;160665.67;1750536;82;21340;-77
2021/04/06 11:50:08;;;;;;;16.17;8.15;;;;;;;35.72;17.65;160590.75;1750580;82;21253;-77
2021/04/06 11:52:40;;;;;;;8.75;4.75;;;;;;;35.33;17.76;160487.72;1747884;82;22025;-77
2021/04/06 11:55:14;;;;;;;17.20;7.12;;;;;;;35.07;17.91;160415.50;1744189;82;21704;-78
2021/04/06 11:57:48;;;;;;;26.57;12.95;;;;;;;34.91;18.01;160374.02;1707547;83;21198;-77
2021/04/06 12:00:21;;;;;;;14.83;7.10;;;;;;;34.69;18.24;160315.20;1685197;85;21243;-78
2021/04/06 12:02:53;;;;;;;20.30;8.33;;;;;;;34.71;18.47;160320.56;1744954;82;21264;-77
2021/04/06 12:05:25;;;;;;;25.25;12.13;;;;;;;34.85;18.15;160357.94;1733869;82;21199;-77
2021/04/06 12:07:58;;;;;;;15.05;6.55;;;;;;;34.92;18.27;160376.69;1747357;81;21222;-77
2021/04/06 12:14:08;;;;;;;35.78;16.87;;;;;;;34.97;18.17;160390.03;1747523;81;21220;-77
2021/04/06 12:16:40;;;;;;;11.90;5.62;;;;;;;35.46;17.83;160522.50;1714145;83;21217;-78
2021/04/06 12:22:50;;;;;;;33.25;13.48;;;;;;;37.29;17.32;161013.78;1733814;82;21182;-78
2021/04/06 12:25:23;;;;;;;12.43;5.37;;;;;;;38.73;16.66;161401.14;1747618;81;22238;-77
2021/04/06 12:27:56;;;;;;;11.95;5.95;;;;;;;39.03;16.56;161484.28;1734046;82;21583;-76
2021/04/06 12:30:29;;;;;;;17.10;7.67;;;;;;;39.43;16.17;161590.23;1747434;81;21217;-76
2021/04/06 12:33:01;;;;;;;5.83;3.92;;;;;;;39.81;16.12;161693.53;1734132;82;22290;-76
2021/04/06 12:35:34;;;;;;;11.53;5.05;;;;;;;39.91;16.02;161719.03;1775460;79;21226;-76
2021/04/06 12:38:06;;;;;;;7.42;4.22;;;;;;;40.15;15.89;161786.16;1784608;80;21186;-76
2021/04/06 12:40:40;;;;;;;15.55;6.22;;;;;;;40.04;15.82;161755.28;1740551;82;21261;-76